Aviation Digital Data Service (ADDS)

Output produced by TAFs form (0426 UTC 01 March 2015)
found at http://aviationweather.gov/adds/tafs/
 
KRIL 282335Z 0100/0124 VRB03KT P6SM VCSH SCT050 OVC070 
     FM010300 18003KT P6SM SCT025 OVC050 
     TEMPO 0104/0108 2SM -SN BR SCT015 OVC025 
     FM010800 25005KT 3SM -SN BR BKN015 OVC025 
     FM011400 25003KT P6SM VCSH SCT015 OVC040